Pendleton, OR (97801)

09:26:PST den 24. november 2014 (GMT -0800)
Sun Ridge Estates | Change Station
CLOSE
Current Station
Personlig værstasjon
Location: Pendleton, OR
Høyde over havet: 1210 ft
Nearby Weather Stations

H.o.h 1210 ft 45.65 °N, 118.79 °W | Updated 10 minutes ago

Klart
Klart
39.1 °F
Feels Like 39 °F
N
0.0
Vind Variabel Vind from ØNØ
Gusts 2.0 mph

I dag
High -- | Low -- °F
--% Chance of Precip.
I går
High -- | Low -- °F
Precip. -- tommer
7:06 AM 4:16 PM
Økende sigd, 6% visible
Lufttrykk 30.39 tommer
Sikt 10.0 eng. mil
Skyet Few 5000 ft
Nedkjølingseffekt 39 °F
Duggpunkt 35 °F
Fuktighet 86%
Regn 0.00 tommer
Snødybde Not available.
UV 1 av 12
Pollen .20 av 12
Luftkvalitet Not available.
Flu Activity Not available.
METAR KPDT 241653Z 16006KT 10SM FEW050 04/01 A3038 RMK AO2 SLP291 T00390006

More Conditions Fewer Conditions

Lufttrykk 30.39 tommer
Sikt 10.0 eng. mil
Skyet Few 5000 ft
Nedkjølingseffekt 39 °F
Duggpunkt 35 °F
Fuktighet 86%
Regn 0.00 tommer
Snødybde Not available.
UV 1 av 12
Pollen .20 av 12
Luftkvalitet Not available.
Flu Activity Not available.
METAR KPDT 241653Z 16006KT 10SM FEW050 04/01 A3038 RMK AO2 SLP291 T00390006

More Conditions Fewer Conditions

10-Day Weather Forecast

Almanac

Astronomi

Nov. 24, 2014 Oppgang Nedgang
Virkelig tid
Tussmørke
Nautisk skumring
Astronomisk skumring
Månen
Lengde av synlig lys
Dagens lengde
Tomorrow will be .
, % of the Moon is Illuminated

Dagens maks og min

State Highs State Lows

Community

WunderPhotos

Upload Photos

1,773,376 photos uploaded!

WunderBlogs® & News

Nearby

Luftkvalitet

  Luftkvalitet AQ Indeks Forurensing
Not available.

Snødybde

Stasjon Depth Høyde over havet

Earthquake Activity

By Distance Mag. Time & Date
Minimum magnitude displayed is 2.5.

Coastal Water Temperatures

Sted Temperatur

Nearby Weather Stations